Главная страница
METAR-TAF:

METAR-TAF

Аэропорты :

Таншоннят

Хошимин, Вьетнам

широта: 10-49N, долгота: 106-40E, высота над уровнем моря: 19 м

Текущие метеонаблюдения

Эта сводка был подготовлена 38 минут назад, в 07:00 UTC
Ветер 2 Узел переменных направлений
Температура 33°C
Влажность 59%
Давление 1005 hPa
Видимость 10 км и более
Отдельные облака на высоте 1700 фута
небольшая облачность на высоте 2000 фута, мощно-кучевые.

METAR: VVTS 130700Z VRB02KT 9999 SCT017 FEW020TCU 33/24 Q1005 NOSIG RMK TCU/S

Время: 14:38 (07:38 UTC)

Прогноз

Эта сводка был подготовлена 2 часа и 38 минут назад, в 05:00 UTC
Прогноз действительный с 13-го 06 UTC до 14-го 12 UTC
Ветер 8 Узел от южный
Видимость 10 км и более
Отдельные облака на высоте 1700 фута
временами
С 13-го 06 UTC до 13-го 11 UTC
Видимость: 5000 м
Отдельные облака на высоте 1500 фута
небольшая облачность на высоте 1700 фута, Кучево-дождевые.
гроза, дождь

TAF: VVTS 130500Z 1306/1412 17008KT 9999 SCT017 TEMPO 1306/1311 5000 TSRA SCT015 FEW017CB

Метеонаблюдения и прогнозы для более 4000 аэропортов (сводки METAR и TAF).

Имеющиеся станции представлены на карте желтыми и красными точками.

Чтобы увидеть название станции, наведите на нее мышь.

Затем щелкните, чтобы увидеть метеонаблюдения и метеопрогнозы.

Управление картой: чтобы увеличить масштаб, щелкните зеленые кнопки с черным крестиком; чтобы уменьшить масштаб, щелкните зеленую кнопку с тире; для просмотра соседних карт щелкайте зеленые стрелки.


METAR-TAF: